sensor_id;sensor_type;location;lat;lon;timestamp;P1;durP1;ratioP1;P2;durP2;ratioP2
48629;SDS011;34426;52.180;4.462;2023-02-22T00:01:38;113.50;;;53.15;;
48629;SDS011;34426;52.180;4.462;2023-02-22T00:04:04;116.57;;;52.95;;
48629;SDS011;34426;52.180;4.462;2023-02-22T00:06:31;123.97;;;56.03;;
48629;SDS011;34426;52.180;4.462;2023-02-22T00:08:58;125.85;;;57.55;;
48629;SDS011;34426;52.180;4.462;2023-02-22T00:11:24;125.65;;;55.58;;
48629;SDS011;34426;52.180;4.462;2023-02-22T00:13:50;127.90;;;57.47;;
48629;SDS011;34426;52.180;4.462;2023-02-22T00:16:16;120.85;;;55.33;;
48629;SDS011;34426;52.180;4.462;2023-02-22T00:18:44;129.13;;;55.58;;
48629;SDS011;34426;52.180;4.462;2023-02-22T00:21:10;117.78;;;54.63;;
48629;SDS011;34426;52.180;4.462;2023-02-22T00:23:39;125.72;;;56.65;;
48629;SDS011;34426;52.180;4.462;2023-02-22T00:26:07;122.28;;;57.33;;
48629;SDS011;34426;52.180;4.462;2023-02-22T00:28:33;113.50;;;53.10;;
48629;SDS011;34426;52.180;4.462;2023-02-22T00:30:58;108.78;;;52.05;;
48629;SDS011;34426;52.180;4.462;2023-02-22T00:33:24;105.15;;;50.58;;
48629;SDS011;34426;52.180;4.462;2023-02-22T00:35:49;106.43;;;52.00;;
48629;SDS011;34426;52.180;4.462;2023-02-22T00:38:16;101.35;;;50.50;;
48629;SDS011;34426;52.180;4.462;2023-02-22T00:40:43;95.38;;;48.45;;
48629;SDS011;34426;52.180;4.462;2023-02-22T00:43:10;95.85;;;48.47;;
48629;SDS011;34426;52.180;4.462;2023-02-22T00:45:35;94.47;;;48.35;;
48629;SDS011;34426;52.180;4.462;2023-02-22T00:48:02;93.28;;;49.97;;
48629;SDS011;34426;52.180;4.462;2023-02-22T00:50:29;98.13;;;51.35;;
48629;SDS011;34426;52.180;4.462;2023-02-22T00:52:56;95.20;;;51.30;;
48629;SDS011;34426;52.180;4.462;2023-02-22T00:55:24;95.80;;;50.92;;
48629;SDS011;34426;52.180;4.462;2023-02-22T00:57:51;95.18;;;50.50;;
48629;SDS011;34426;52.180;4.462;2023-02-22T01:00:19;97.50;;;51.03;;
48629;SDS011;34426;52.180;4.462;2023-02-22T01:02:46;99.88;;;52.35;;
48629;SDS011;34426;52.180;4.462;2023-02-22T01:05:12;103.65;;;53.78;;
48629;SDS011;34426;52.180;4.462;2023-02-22T01:07:38;109.38;;;52.10;;
48629;SDS011;34426;52.180;4.462;2023-02-22T01:10:05;101.47;;;52.40;;
48629;SDS011;34426;52.180;4.462;2023-02-22T01:12:31;95.78;;;49.60;;
48629;SDS011;34426;52.180;4.462;2023-02-22T01:14:56;103.20;;;51.83;;
48629;SDS011;34426;52.180;4.462;2023-02-22T01:17:23;99.47;;;49.70;;
48629;SDS011;34426;52.180;4.462;2023-02-22T01:19:49;94.95;;;48.70;;
48629;SDS011;34426;52.180;4.462;2023-02-22T01:22:15;103.50;;;53.13;;
48629;SDS011;34426;52.180;4.462;2023-02-22T01:24:41;100.10;;;50.33;;
48629;SDS011;34426;52.180;4.462;2023-02-22T01:27:06;100.63;;;51.08;;
48629;SDS011;34426;52.180;4.462;2023-02-22T01:29:32;103.45;;;52.10;;
48629;SDS011;34426;52.180;4.462;2023-02-22T01:31:59;98.47;;;50.45;;
48629;SDS011;34426;52.180;4.462;2023-02-22T01:34:25;97.05;;;49.33;;
48629;SDS011;34426;52.180;4.462;2023-02-22T01:36:51;95.28;;;48.67;;
48629;SDS011;34426;52.180;4.462;2023-02-22T01:39:16;93.47;;;50.38;;
48629;SDS011;34426;52.180;4.462;2023-02-22T01:41:42;101.35;;;52.50;;
48629;SDS011;34426;52.180;4.462;2023-02-22T01:44:18;98.68;;;51.28;;
48629;SDS011;34426;52.180;4.462;2023-02-22T01:46:45;98.50;;;51.60;;
48629;SDS011;34426;52.180;4.462;2023-02-22T01:49:10;103.90;;;53.30;;
48629;SDS011;34426;52.180;4.462;2023-02-22T01:51:40;101.57;;;52.55;;
48629;SDS011;34426;52.180;4.462;2023-02-22T01:54:08;101.75;;;52.03;;
48629;SDS011;34426;52.180;4.462;2023-02-22T01:56:37;97.93;;;52.63;;
48629;SDS011;34426;52.180;4.462;2023-02-22T01:59:09;95.25;;;51.55;;
48629;SDS011;34426;52.180;4.462;2023-02-22T02:01:37;99.75;;;52.92;;
48629;SDS011;34426;52.180;4.462;2023-02-22T02:04:06;107.65;;;58.28;;
48629;SDS011;34426;52.180;4.462;2023-02-22T02:06:35;105.80;;;56.17;;
48629;SDS011;34426;52.180;4.462;2023-02-22T02:09:07;103.55;;;55.15;;
48629;SDS011;34426;52.180;4.462;2023-02-22T02:11:36;102.38;;;55.83;;
48629;SDS011;34426;52.180;4.462;2023-02-22T02:14:04;103.10;;;57.00;;
48629;SDS011;34426;52.180;4.462;2023-02-22T02:16:32;96.43;;;53.92;;
48629;SDS011;34426;52.180;4.462;2023-02-22T02:19:01;103.57;;;56.55;;
48629;SDS011;34426;52.180;4.462;2023-02-22T02:27:52;101.00;;;52.15;;
48629;SDS011;34426;52.180;4.462;2023-02-22T02:30:35;99.15;;;54.80;;
48629;SDS011;34426;52.180;4.462;2023-02-22T02:33:20;97.85;;;53.58;;
48629;SDS011;34426;52.180;4.462;2023-02-22T02:35:54;102.30;;;56.03;;
48629;SDS011;34426;52.180;4.462;2023-02-22T02:38:28;101.95;;;53.42;;
48629;SDS011;34426;52.180;4.462;2023-02-22T02:41:02;98.18;;;53.08;;
48629;SDS011;34426;52.180;4.462;2023-02-22T02:43:35;97.20;;;53.78;;
48629;SDS011;34426;52.180;4.462;2023-02-22T02:46:07;99.95;;;54.45;;
48629;SDS011;34426;52.180;4.462;2023-02-22T02:48:37;102.68;;;55.67;;
48629;SDS011;34426;52.180;4.462;2023-02-22T02:51:07;99.70;;;53.97;;
48629;SDS011;34426;52.180;4.462;2023-02-22T02:53:36;100.55;;;55.90;;
48629;SDS011;34426;52.180;4.462;2023-02-22T02:56:05;101.13;;;54.20;;
48629;SDS011;34426;52.180;4.462;2023-02-22T02:58:31;96.68;;;53.88;;
48629;SDS011;34426;52.180;4.462;2023-02-22T03:00:57;100.97;;;53.05;;
48629;SDS011;34426;52.180;4.462;2023-02-22T03:03:28;107.00;;;54.92;;
48629;SDS011;34426;52.180;4.462;2023-02-22T03:06:28;110.47;;;58.13;;
48629;SDS011;34426;52.180;4.462;2023-02-22T03:09:10;111.13;;;56.72;;
48629;SDS011;34426;52.180;4.462;2023-02-22T03:11:43;108.47;;;56.17;;
48629;SDS011;34426;52.180;4.462;2023-02-22T03:14:20;106.30;;;56.25;;
48629;SDS011;34426;52.180;4.462;2023-02-22T03:16:51;111.57;;;58.63;;
48629;SDS011;34426;52.180;4.462;2023-02-22T03:19:26;107.30;;;56.80;;
48629;SDS011;34426;52.180;4.462;2023-02-22T03:21:59;108.57;;;56.65;;
48629;SDS011;34426;52.180;4.462;2023-02-22T03:24:30;114.35;;;59.30;;
48629;SDS011;34426;52.180;4.462;2023-02-22T03:27:02;113.38;;;60.03;;
48629;SDS011;34426;52.180;4.462;2023-02-22T03:29:31;118.50;;;59.25;;
48629;SDS011;34426;52.180;4.462;2023-02-22T03:31:59;112.00;;;59.08;;
48629;SDS011;34426;52.180;4.462;2023-02-22T03:34:30;110.45;;;57.50;;
48629;SDS011;34426;52.180;4.462;2023-02-22T03:36:58;104.18;;;55.42;;
48629;SDS011;34426;52.180;4.462;2023-02-22T03:39:27;106.60;;;55.13;;
48629;SDS011;34426;52.180;4.462;2023-02-22T03:41:55;113.53;;;56.78;;
48629;SDS011;34426;52.180;4.462;2023-02-22T03:44:24;108.75;;;56.17;;
48629;SDS011;34426;52.180;4.462;2023-02-22T03:46:53;110.22;;;55.40;;
48629;SDS011;34426;52.180;4.462;2023-02-22T03:49:23;111.22;;;57.20;;
48629;SDS011;34426;52.180;4.462;2023-02-22T03:51:58;119.10;;;60.15;;
48629;SDS011;34426;52.180;4.462;2023-02-22T03:54:24;113.47;;;61.28;;
48629;SDS011;34426;52.180;4.462;2023-02-22T03:56:51;120.38;;;60.92;;
48629;SDS011;34426;52.180;4.462;2023-02-22T03:59:19;114.80;;;59.92;;
48629;SDS011;34426;52.180;4.462;2023-02-22T04:01:46;119.82;;;60.35;;
48629;SDS011;34426;52.180;4.462;2023-02-22T04:04:11;117.30;;;59.97;;
48629;SDS011;34426;52.180;4.462;2023-02-22T04:06:37;117.55;;;58.58;;
48629;SDS011;34426;52.180;4.462;2023-02-22T04:09:04;116.65;;;58.78;;
48629;SDS011;34426;52.180;4.462;2023-02-22T04:11:30;114.63;;;57.75;;
48629;SDS011;34426;52.180;4.462;2023-02-22T04:13:55;121.82;;;60.97;;
48629;SDS011;34426;52.180;4.462;2023-02-22T04:16:21;116.22;;;59.30;;
48629;SDS011;34426;52.180;4.462;2023-02-22T04:18:46;122.45;;;61.40;;
48629;SDS011;34426;52.180;4.462;2023-02-22T04:21:12;118.90;;;59.60;;
48629;SDS011;34426;52.180;4.462;2023-02-22T04:23:38;119.43;;;63.03;;
48629;SDS011;34426;52.180;4.462;2023-02-22T04:26:04;128.15;;;63.10;;
48629;SDS011;34426;52.180;4.462;2023-02-22T04:28:30;124.35;;;61.00;;
48629;SDS011;34426;52.180;4.462;2023-02-22T04:30:55;126.65;;;63.15;;
48629;SDS011;34426;52.180;4.462;2023-02-22T04:33:21;111.28;;;58.30;;
48629;SDS011;34426;52.180;4.462;2023-02-22T04:35:46;111.10;;;60.22;;
48629;SDS011;34426;52.180;4.462;2023-02-22T04:38:12;106.78;;;58.13;;
48629;SDS011;34426;52.180;4.462;2023-02-22T04:40:37;114.43;;;58.00;;
48629;SDS011;34426;52.180;4.462;2023-02-22T04:43:04;105.60;;;57.28;;
48629;SDS011;34426;52.180;4.462;2023-02-22T04:45:30;106.22;;;57.80;;
48629;SDS011;34426;52.180;4.462;2023-02-22T04:47:55;106.47;;;57.70;;
48629;SDS011;34426;52.180;4.462;2023-02-22T04:50:21;106.43;;;57.33;;
48629;SDS011;34426;52.180;4.462;2023-02-22T04:52:46;107.53;;;58.40;;
48629;SDS011;34426;52.180;4.462;2023-02-22T04:55:12;106.43;;;57.05;;
48629;SDS011;34426;52.180;4.462;2023-02-22T04:57:37;109.28;;;57.95;;
48629;SDS011;34426;52.180;4.462;2023-02-22T05:00:05;102.60;;;52.38;;
48629;SDS011;34426;52.180;4.462;2023-02-22T05:02:31;95.70;;;51.38;;
48629;SDS011;34426;52.180;4.462;2023-02-22T05:04:56;106.72;;;55.35;;
48629;SDS011;34426;52.180;4.462;2023-02-22T05:07:22;105.47;;;55.78;;
48629;SDS011;34426;52.180;4.462;2023-02-22T05:09:47;108.43;;;56.17;;
48629;SDS011;34426;52.180;4.462;2023-02-22T05:12:13;112.57;;;57.17;;
48629;SDS011;34426;52.180;4.462;2023-02-22T05:14:38;110.47;;;57.00;;
48629;SDS011;34426;52.180;4.462;2023-02-22T05:17:05;116.63;;;57.92;;
48629;SDS011;34426;52.180;4.462;2023-02-22T05:19:31;112.80;;;57.78;;
48629;SDS011;34426;52.180;4.462;2023-02-22T05:21:56;111.55;;;56.65;;
48629;SDS011;34426;52.180;4.462;2023-02-22T05:24:22;111.57;;;57.35;;
48629;SDS011;34426;52.180;4.462;2023-02-22T05:26:47;120.90;;;58.47;;
48629;SDS011;34426;52.180;4.462;2023-02-22T05:29:13;117.53;;;58.30;;
48629;SDS011;34426;52.180;4.462;2023-02-22T05:31:38;121.40;;;57.22;;
48629;SDS011;34426;52.180;4.462;2023-02-22T05:34:05;117.18;;;55.90;;
48629;SDS011;34426;52.180;4.462;2023-02-22T05:36:30;114.85;;;55.90;;
48629;SDS011;34426;52.180;4.462;2023-02-22T05:38:56;128.27;;;57.47;;
48629;SDS011;34426;52.180;4.462;2023-02-22T05:41:21;128.32;;;56.72;;
48629;SDS011;34426;52.180;4.462;2023-02-22T05:43:47;124.13;;;56.63;;
48629;SDS011;34426;52.180;4.462;2023-02-22T05:46:12;158.50;;;59.30;;
48629;SDS011;34426;52.180;4.462;2023-02-22T05:48:38;157.55;;;54.95;;
48629;SDS011;34426;52.180;4.462;2023-02-22T05:51:05;122.65;;;53.13;;
48629;SDS011;34426;52.180;4.462;2023-02-22T05:53:31;111.50;;;52.08;;
48629;SDS011;34426;52.180;4.462;2023-02-22T05:55:56;126.78;;;47.80;;
48629;SDS011;34426;52.180;4.462;2023-02-22T05:58:22;107.90;;;46.97;;
48629;SDS011;34426;52.180;4.462;2023-02-22T06:00:47;104.82;;;49.22;;
48629;SDS011;34426;52.180;4.462;2023-02-22T06:03:13;106.68;;;48.25;;
48629;SDS011;34426;52.180;4.462;2023-02-22T06:05:39;117.75;;;44.85;;
48629;SDS011;34426;52.180;4.462;2023-02-22T06:08:06;95.03;;;45.53;;
48629;SDS011;34426;52.180;4.462;2023-02-22T06:10:32;94.68;;;45.90;;
48629;SDS011;34426;52.180;4.462;2023-02-22T06:12:58;116.30;;;50.15;;
48629;SDS011;34426;52.180;4.462;2023-02-22T06:15:25;93.35;;;46.10;;
48629;SDS011;34426;52.180;4.462;2023-02-22T06:17:52;106.97;;;46.35;;
48629;SDS011;34426;52.180;4.462;2023-02-22T06:20:19;95.60;;;47.05;;
48629;SDS011;34426;52.180;4.462;2023-02-22T06:22:46;94.88;;;43.35;;
48629;SDS011;34426;52.180;4.462;2023-02-22T06:25:14;87.90;;;44.83;;
48629;SDS011;34426;52.180;4.462;2023-02-22T06:27:41;80.85;;;42.70;;
48629;SDS011;34426;52.180;4.462;2023-02-22T06:30:07;99.40;;;44.22;;
48629;SDS011;34426;52.180;4.462;2023-02-22T06:32:33;93.32;;;44.63;;
48629;SDS011;34426;52.180;4.462;2023-02-22T06:34:59;133.07;;;45.35;;
48629;SDS011;34426;52.180;4.462;2023-02-22T06:37:24;87.90;;;42.20;;
48629;SDS011;34426;52.180;4.462;2023-02-22T06:39:50;87.53;;;45.60;;
48629;SDS011;34426;52.180;4.462;2023-02-22T06:42:17;83.63;;;43.35;;
48629;SDS011;34426;52.180;4.462;2023-02-22T06:44:42;96.55;;;46.58;;
48629;SDS011;34426;52.180;4.462;2023-02-22T06:47:08;96.75;;;44.80;;
48629;SDS011;34426;52.180;4.462;2023-02-22T06:49:33;106.53;;;42.28;;
48629;SDS011;34426;52.180;4.462;2023-02-22T06:51:59;80.05;;;42.40;;
48629;SDS011;34426;52.180;4.462;2023-02-22T06:54:25;110.50;;;43.55;;
48629;SDS011;34426;52.180;4.462;2023-02-22T06:56:50;84.38;;;43.08;;
48629;SDS011;34426;52.180;4.462;2023-02-22T06:59:17;83.75;;;42.13;;
48629;SDS011;34426;52.180;4.462;2023-02-22T07:01:42;77.13;;;41.58;;
48629;SDS011;34426;52.180;4.462;2023-02-22T07:04:08;84.85;;;41.70;;
48629;SDS011;34426;52.180;4.462;2023-02-22T07:06:34;76.20;;;41.05;;
48629;SDS011;34426;52.180;4.462;2023-02-22T07:08:59;76.50;;;40.38;;
48629;SDS011;34426;52.180;4.462;2023-02-22T07:11:25;74.63;;;40.17;;
48629;SDS011;34426;52.180;4.462;2023-02-22T07:13:51;89.35;;;41.05;;
48629;SDS011;34426;52.180;4.462;2023-02-22T07:16:18;72.97;;;39.35;;
48629;SDS011;34426;52.180;4.462;2023-02-22T07:18:43;95.07;;;41.50;;
48629;SDS011;34426;52.180;4.462;2023-02-22T07:21:08;82.40;;;43.40;;
48629;SDS011;34426;52.180;4.462;2023-02-22T07:23:34;81.95;;;44.10;;
48629;SDS011;34426;52.180;4.462;2023-02-22T07:26:00;86.03;;;42.45;;
48629;SDS011;34426;52.180;4.462;2023-02-22T07:28:26;85.05;;;44.88;;
48629;SDS011;34426;52.180;4.462;2023-02-22T07:30:52;68.85;;;37.40;;
48629;SDS011;34426;52.180;4.462;2023-02-22T07:33:18;59.97;;;35.53;;
48629;SDS011;34426;52.180;4.462;2023-02-22T07:35:45;69.20;;;37.88;;
48629;SDS011;34426;52.180;4.462;2023-02-22T07:38:12;70.65;;;38.50;;
48629;SDS011;34426;52.180;4.462;2023-02-22T07:40:38;81.45;;;37.95;;
48629;SDS011;34426;52.180;4.462;2023-02-22T07:43:12;69.07;;;37.20;;
48629;SDS011;34426;52.180;4.462;2023-02-22T07:45:39;66.53;;;36.78;;
48629;SDS011;34426;52.180;4.462;2023-02-22T07:48:05;73.82;;;39.20;;
48629;SDS011;34426;52.180;4.462;2023-02-22T07:50:33;72.63;;;37.95;;
48629;SDS011;34426;52.180;4.462;2023-02-22T07:53:00;59.83;;;34.78;;
48629;SDS011;34426;52.180;4.462;2023-02-22T07:55:28;58.65;;;34.15;;
48629;SDS011;34426;52.180;4.462;2023-02-22T07:57:55;60.60;;;36.03;;
48629;SDS011;34426;52.180;4.462;2023-02-22T08:00:23;59.83;;;33.63;;
48629;SDS011;34426;52.180;4.462;2023-02-22T08:02:50;56.80;;;33.70;;
48629;SDS011;34426;52.180;4.462;2023-02-22T08:05:16;65.57;;;33.33;;
48629;SDS011;34426;52.180;4.462;2023-02-22T08:07:43;52.03;;;30.88;;
48629;SDS011;34426;52.180;4.462;2023-02-22T08:10:09;61.55;;;33.95;;
48629;SDS011;34426;52.180;4.462;2023-02-22T08:12:36;58.58;;;34.67;;
48629;SDS011;34426;52.180;4.462;2023-02-22T08:15:02;56.90;;;33.33;;
48629;SDS011;34426;52.180;4.462;2023-02-22T08:17:28;61.88;;;34.15;;
48629;SDS011;34426;52.180;4.462;2023-02-22T08:19:54;62.45;;;35.88;;
48629;SDS011;34426;52.180;4.462;2023-02-22T08:22:19;59.53;;;34.42;;
48629;SDS011;34426;52.180;4.462;2023-02-22T08:24:46;68.50;;;36.45;;
48629;SDS011;34426;52.180;4.462;2023-02-22T08:27:11;64.15;;;35.90;;
48629;SDS011;34426;52.180;4.462;2023-02-22T08:29:37;63.53;;;36.65;;
48629;SDS011;34426;52.180;4.462;2023-02-22T08:32:03;67.65;;;36.83;;
48629;SDS011;34426;52.180;4.462;2023-02-22T08:34:28;68.00;;;37.22;;
48629;SDS011;34426;52.180;4.462;2023-02-22T08:36:54;63.38;;;37.03;;
48629;SDS011;34426;52.180;4.462;2023-02-22T08:39:20;68.32;;;39.00;;
48629;SDS011;34426;52.180;4.462;2023-02-22T08:41:47;64.93;;;37.50;;
48629;SDS011;34426;52.180;4.462;2023-02-22T08:44:12;57.78;;;36.33;;
48629;SDS011;34426;52.180;4.462;2023-02-22T08:46:38;56.53;;;33.97;;
48629;SDS011;34426;52.180;4.462;2023-02-22T08:49:03;51.95;;;32.88;;
48629;SDS011;34426;52.180;4.462;2023-02-22T08:51:29;51.17;;;32.33;;
48629;SDS011;34426;52.180;4.462;2023-02-22T08:53:58;50.63;;;31.67;;
48629;SDS011;34426;52.180;4.462;2023-02-22T08:56:24;51.40;;;31.52;;
48629;SDS011;34426;52.180;4.462;2023-02-22T08:58:51;52.58;;;31.98;;
48629;SDS011;34426;52.180;4.462;2023-02-22T09:01:16;53.22;;;33.63;;
48629;SDS011;34426;52.180;4.462;2023-02-22T09:03:41;56.22;;;35.00;;
48629;SDS011;34426;52.180;4.462;2023-02-22T09:06:07;54.17;;;33.58;;
48629;SDS011;34426;52.180;4.462;2023-02-22T09:08:32;61.75;;;35.53;;
48629;SDS011;34426;52.180;4.462;2023-02-22T09:10:58;57.35;;;34.00;;
48629;SDS011;34426;52.180;4.462;2023-02-22T09:13:23;57.40;;;34.35;;
48629;SDS011;34426;52.180;4.462;2023-02-22T09:15:50;60.42;;;36.60;;
48629;SDS011;34426;52.180;4.462;2023-02-22T09:18:15;61.10;;;36.60;;
48629;SDS011;34426;52.180;4.462;2023-02-22T09:20:41;62.20;;;38.65;;
48629;SDS011;34426;52.180;4.462;2023-02-22T09:23:06;61.80;;;37.10;;
48629;SDS011;34426;52.180;4.462;2023-02-22T09:25:32;58.00;;;36.58;;
48629;SDS011;34426;52.180;4.462;2023-02-22T09:27:57;55.20;;;36.63;;
48629;SDS011;34426;52.180;4.462;2023-02-22T09:30:24;56.58;;;37.05;;
48629;SDS011;34426;52.180;4.462;2023-02-22T09:32:53;56.30;;;35.53;;
48629;SDS011;34426;52.180;4.462;2023-02-22T09:35:21;56.70;;;36.25;;
48629;SDS011;34426;52.180;4.462;2023-02-22T09:37:47;59.70;;;36.53;;
48629;SDS011;34426;52.180;4.462;2023-02-22T09:40:14;55.63;;;35.42;;
48629;SDS011;34426;52.180;4.462;2023-02-22T09:42:42;58.83;;;36.10;;
48629;SDS011;34426;52.180;4.462;2023-02-22T09:45:21;53.22;;;34.63;;
48629;SDS011;34426;52.180;4.462;2023-02-22T09:48:05;53.58;;;34.33;;
48629;SDS011;34426;52.180;4.462;2023-02-22T09:50:48;50.90;;;33.17;;
48629;SDS011;34426;52.180;4.462;2023-02-22T09:53:34;51.50;;;32.97;;
48629;SDS011;34426;52.180;4.462;2023-02-22T09:56:13;54.05;;;34.80;;
48629;SDS011;34426;52.180;4.462;2023-02-22T09:58:47;53.13;;;32.70;;
48629;SDS011;34426;52.180;4.462;2023-02-22T10:01:23;50.95;;;33.35;;
48629;SDS011;34426;52.180;4.462;2023-02-22T10:04:09;50.95;;;33.65;;
48629;SDS011;34426;52.180;4.462;2023-02-22T10:06:43;45.67;;;31.50;;
48629;SDS011;34426;52.180;4.462;2023-02-22T10:09:26;50.40;;;32.58;;
48629;SDS011;34426;52.180;4.462;2023-02-22T10:12:01;45.42;;;31.88;;
48629;SDS011;34426;52.180;4.462;2023-02-22T10:17:36;44.92;;;30.60;;
48629;SDS011;34426;52.180;4.462;2023-02-22T10:20:25;44.28;;;29.80;;
48629;SDS011;34426;52.180;4.462;2023-02-22T10:23:09;44.97;;;30.73;;
48629;SDS011;34426;52.180;4.462;2023-02-22T10:25:47;43.42;;;30.27;;
48629;SDS011;34426;52.180;4.462;2023-02-22T10:28:20;39.28;;;28.80;;
48629;SDS011;34426;52.180;4.462;2023-02-22T10:36:44;41.22;;;27.65;;
48629;SDS011;34426;52.180;4.462;2023-02-22T10:39:21;40.60;;;28.90;;
48629;SDS011;34426;52.180;4.462;2023-02-22T10:42:09;39.63;;;28.02;;
48629;SDS011;34426;52.180;4.462;2023-02-22T10:44:46;38.45;;;27.75;;
48629;SDS011;34426;52.180;4.462;2023-02-22T10:47:15;37.63;;;27.10;;
48629;SDS011;34426;52.180;4.462;2023-02-22T10:49:43;36.97;;;27.88;;
48629;SDS011;34426;52.180;4.462;2023-02-22T10:52:16;37.72;;;28.98;;
48629;SDS011;34426;52.180;4.462;2023-02-22T10:54:46;39.95;;;28.27;;
48629;SDS011;34426;52.180;4.462;2023-02-22T10:57:15;38.47;;;27.55;;
48629;SDS011;34426;52.180;4.462;2023-02-22T10:59:45;42.90;;;28.48;;
48629;SDS011;34426;52.180;4.462;2023-02-22T11:02:16;40.03;;;28.42;;
48629;SDS011;34426;52.180;4.462;2023-02-22T11:04:45;41.90;;;28.20;;
48629;SDS011;34426;52.180;4.462;2023-02-22T11:07:19;35.40;;;26.85;;
48629;SDS011;34426;52.180;4.462;2023-02-22T11:09:48;34.05;;;27.27;;
48629;SDS011;34426;52.180;4.462;2023-02-22T11:12:17;36.67;;;27.00;;
48629;SDS011;34426;52.180;4.462;2023-02-22T11:14:44;39.45;;;28.00;;
48629;SDS011;34426;52.180;4.462;2023-02-22T11:17:09;34.90;;;24.98;;
48629;SDS011;34426;52.180;4.462;2023-02-22T11:19:44;35.80;;;26.85;;
48629;SDS011;34426;52.180;4.462;2023-02-22T11:22:11;36.38;;;27.70;;
48629;SDS011;34426;52.180;4.462;2023-02-22T11:24:44;35.10;;;25.90;;
48629;SDS011;34426;52.180;4.462;2023-02-22T11:27:19;38.85;;;26.38;;
48629;SDS011;34426;52.180;4.462;2023-02-22T11:29:49;38.60;;;25.77;;
48629;SDS011;34426;52.180;4.462;2023-02-22T11:32:17;35.58;;;25.67;;
48629;SDS011;34426;52.180;4.462;2023-02-22T11:34:44;38.22;;;26.63;;
48629;SDS011;34426;52.180;4.462;2023-02-22T11:37:17;33.25;;;25.83;;
48629;SDS011;34426;52.180;4.462;2023-02-22T11:39:55;34.90;;;24.85;;
48629;SDS011;34426;52.180;4.462;2023-02-22T11:42:29;35.63;;;25.73;;
48629;SDS011;34426;52.180;4.462;2023-02-22T11:45:07;33.70;;;26.10;;
48629;SDS011;34426;52.180;4.462;2023-02-22T11:47:35;32.22;;;25.55;;
48629;SDS011;34426;52.180;4.462;2023-02-22T11:50:16;34.75;;;26.33;;
48629;SDS011;34426;52.180;4.462;2023-02-22T11:52:49;34.45;;;25.00;;
48629;SDS011;34426;52.180;4.462;2023-02-22T11:55:24;33.00;;;25.25;;
48629;SDS011;34426;52.180;4.462;2023-02-22T11:57:57;32.83;;;25.27;;
48629;SDS011;34426;52.180;4.462;2023-02-22T12:00:32;35.88;;;26.15;;
48629;SDS011;34426;52.180;4.462;2023-02-22T12:03:16;31.75;;;24.88;;
48629;SDS011;34426;52.180;4.462;2023-02-22T12:05:57;32.30;;;25.45;;
48629;SDS011;34426;52.180;4.462;2023-02-22T12:08:34;34.30;;;25.48;;
48629;SDS011;34426;52.180;4.462;2023-02-22T12:11:12;32.33;;;25.10;;
48629;SDS011;34426;52.180;4.462;2023-02-22T12:13:45;36.45;;;25.45;;
48629;SDS011;34426;52.180;4.462;2023-02-22T12:16:20;35.42;;;25.58;;
48629;SDS011;34426;52.180;4.462;2023-02-22T12:18:57;38.10;;;26.15;;
48629;SDS011;34426;52.180;4.462;2023-02-22T12:21:33;36.28;;;25.27;;
48629;SDS011;34426;52.180;4.462;2023-02-22T12:24:05;35.70;;;25.33;;
48629;SDS011;34426;52.180;4.462;2023-02-22T12:26:35;34.22;;;24.23;;
48629;SDS011;34426;52.180;4.462;2023-02-22T12:29:05;32.78;;;23.80;;
48629;SDS011;34426;52.180;4.462;2023-02-22T12:31:39;33.75;;;25.65;;
48629;SDS011;34426;52.180;4.462;2023-02-22T12:34:10;32.63;;;24.58;;
48629;SDS011;34426;52.180;4.462;2023-02-22T12:36:44;33.85;;;25.13;;
48629;SDS011;34426;52.180;4.462;2023-02-22T12:39:32;35.95;;;25.25;;
48629;SDS011;34426;52.180;4.462;2023-02-22T12:42:07;35.05;;;26.15;;
48629;SDS011;34426;52.180;4.462;2023-02-22T12:44:38;37.00;;;25.35;;
48629;SDS011;34426;52.180;4.462;2023-02-22T12:47:05;36.50;;;24.90;;
48629;SDS011;34426;52.180;4.462;2023-02-22T12:49:39;32.10;;;24.17;;
48629;SDS011;34426;52.180;4.462;2023-02-22T12:52:09;36.25;;;25.45;;
48629;SDS011;34426;52.180;4.462;2023-02-22T12:54:40;33.35;;;24.33;;
48629;SDS011;34426;52.180;4.462;2023-02-22T12:57:13;38.03;;;24.25;;
48629;SDS011;34426;52.180;4.462;2023-02-22T12:59:45;35.45;;;25.10;;
48629;SDS011;34426;52.180;4.462;2023-02-22T13:02:14;35.42;;;25.08;;
48629;SDS011;34426;52.180;4.462;2023-02-22T13:04:44;35.05;;;24.73;;
48629;SDS011;34426;52.180;4.462;2023-02-22T13:07:12;33.20;;;24.52;;
48629;SDS011;34426;52.180;4.462;2023-02-22T13:10:02;32.40;;;24.45;;
48629;SDS011;34426;52.180;4.462;2023-02-22T13:12:42;36.97;;;24.77;;
48629;SDS011;34426;52.180;4.462;2023-02-22T13:15:17;32.50;;;23.90;;
48629;SDS011;34426;52.180;4.462;2023-02-22T13:17:49;31.77;;;24.02;;
48629;SDS011;34426;52.180;4.462;2023-02-22T13:22:47;32.65;;;24.48;;
48629;SDS011;34426;52.180;4.462;2023-02-22T13:25:20;32.00;;;24.92;;
48629;SDS011;34426;52.180;4.462;2023-02-22T13:27:56;38.90;;;26.30;;
48629;SDS011;34426;52.180;4.462;2023-02-22T13:30:28;40.92;;;25.05;;
48629;SDS011;34426;52.180;4.462;2023-02-22T13:33:16;35.50;;;24.65;;
48629;SDS011;34426;52.180;4.462;2023-02-22T13:35:59;38.00;;;25.73;;
48629;SDS011;34426;52.180;4.462;2023-02-22T13:38:40;35.17;;;25.03;;
48629;SDS011;34426;52.180;4.462;2023-02-22T13:41:33;36.00;;;25.67;;
48629;SDS011;34426;52.180;4.462;2023-02-22T13:44:18;37.95;;;25.33;;
48629;SDS011;34426;52.180;4.462;2023-02-22T13:47:06;36.03;;;25.00;;
48629;SDS011;34426;52.180;4.462;2023-02-22T13:49:44;42.88;;;27.67;;
48629;SDS011;34426;52.180;4.462;2023-02-22T13:52:19;41.95;;;25.50;;
48629;SDS011;34426;52.180;4.462;2023-02-22T13:54:48;43.67;;;26.35;;
48629;SDS011;34426;52.180;4.462;2023-02-22T13:57:18;34.28;;;25.55;;
48629;SDS011;34426;52.180;4.462;2023-02-22T13:59:47;36.85;;;26.70;;
48629;SDS011;34426;52.180;4.462;2023-02-22T14:04:58;37.53;;;26.58;;
48629;SDS011;34426;52.180;4.462;2023-02-22T14:10:36;36.15;;;27.80;;
48629;SDS011;34426;52.180;4.462;2023-02-22T14:13:08;37.67;;;26.40;;
48629;SDS011;34426;52.180;4.462;2023-02-22T14:15:35;40.08;;;27.20;;
48629;SDS011;34426;52.180;4.462;2023-02-22T14:18:20;40.35;;;28.52;;
48629;SDS011;34426;52.180;4.462;2023-02-22T14:20:46;36.35;;;27.10;;
48629;SDS011;34426;52.180;4.462;2023-02-22T14:23:33;43.90;;;27.85;;
48629;SDS011;34426;52.180;4.462;2023-02-22T14:26:08;42.10;;;27.48;;
48629;SDS011;34426;52.180;4.462;2023-02-22T14:28:40;41.47;;;28.23;;
48629;SDS011;34426;52.180;4.462;2023-02-22T14:31:14;38.72;;;28.27;;
48629;SDS011;34426;52.180;4.462;2023-02-22T14:33:51;41.42;;;29.17;;
48629;SDS011;34426;52.180;4.462;2023-02-22T14:36:26;43.50;;;29.80;;
48629;SDS011;34426;52.180;4.462;2023-02-22T14:38:57;41.35;;;29.02;;
48629;SDS011;34426;52.180;4.462;2023-02-22T14:41:31;43.05;;;29.23;;
48629;SDS011;34426;52.180;4.462;2023-02-22T14:43:59;45.55;;;29.83;;
48629;SDS011;34426;52.180;4.462;2023-02-22T14:46:33;42.22;;;29.45;;
48629;SDS011;34426;52.180;4.462;2023-02-22T14:51:30;40.85;;;28.65;;
48629;SDS011;34426;52.180;4.462;2023-02-22T14:54:01;43.97;;;29.58;;
48629;SDS011;34426;52.180;4.462;2023-02-22T14:56:33;45.65;;;29.38;;